sensor_id;sensor_type;location;lat;lon;timestamp;temperature;humidity
15111;DHT22;7656;51.954;7.998;2024-03-25T00:02:49;6.80;99.90
15111;DHT22;7656;51.954;7.998;2024-03-25T00:07:10;7.00;99.90
15111;DHT22;7656;51.954;7.998;2024-03-25T00:11:31;6.80;99.90
15111;DHT22;7656;51.954;7.998;2024-03-25T00:15:52;6.80;99.90
15111;DHT22;7656;51.954;7.998;2024-03-25T00:20:13;6.80;99.90
15111;DHT22;7656;51.954;7.998;2024-03-25T00:24:36;6.60;99.90
15111;DHT22;7656;51.954;7.998;2024-03-25T00:28:57;6.60;99.90
15111;DHT22;7656;51.954;7.998;2024-03-25T00:33:18;6.50;99.90
15111;DHT22;7656;51.954;7.998;2024-03-25T00:37:39;6.70;99.90
15111;DHT22;7656;51.954;7.998;2024-03-25T00:42:00;6.70;99.90
15111;DHT22;7656;51.954;7.998;2024-03-25T00:46:21;6.70;99.90
15111;DHT22;7656;51.954;7.998;2024-03-25T00:50:42;6.60;99.90
15111;DHT22;7656;51.954;7.998;2024-03-25T00:55:03;6.70;99.90
15111;DHT22;7656;51.954;7.998;2024-03-25T00:59:25;6.80;99.90
15111;DHT22;7656;51.954;7.998;2024-03-25T01:03:46;7.00;99.90
15111;DHT22;7656;51.954;7.998;2024-03-25T01:08:07;7.10;99.90
15111;DHT22;7656;51.954;7.998;2024-03-25T01:12:31;7.10;99.90
15111;DHT22;7656;51.954;7.998;2024-03-25T01:16:53;7.00;99.90
15111;DHT22;7656;51.954;7.998;2024-03-25T01:21:14;7.00;99.90
15111;DHT22;7656;51.954;7.998;2024-03-25T01:25:35;7.10;99.90
15111;DHT22;7656;51.954;7.998;2024-03-25T01:29:56;7.10;99.90
15111;DHT22;7656;51.954;7.998;2024-03-25T01:34:18;7.00;99.90
15111;DHT22;7656;51.954;7.998;2024-03-25T01:38:39;7.00;99.90
15111;DHT22;7656;51.954;7.998;2024-03-25T01:43:01;7.00;99.90
15111;DHT22;7656;51.954;7.998;2024-03-25T01:47:23;6.90;99.90
15111;DHT22;7656;51.954;7.998;2024-03-25T01:51:44;6.80;99.90
15111;DHT22;7656;51.954;7.998;2024-03-25T01:56:06;6.80;99.90
15111;DHT22;7656;51.954;7.998;2024-03-25T02:00:28;6.80;99.90
15111;DHT22;7656;51.954;7.998;2024-03-25T02:04:50;6.90;99.90
15111;DHT22;7656;51.954;7.998;2024-03-25T02:09:12;6.90;99.90
15111;DHT22;7656;51.954;7.998;2024-03-25T02:13:35;6.70;99.90
15111;DHT22;7656;51.954;7.998;2024-03-25T02:17:56;6.80;99.90
15111;DHT22;7656;51.954;7.998;2024-03-25T02:22:18;6.80;99.90
15111;DHT22;7656;51.954;7.998;2024-03-25T02:26:39;6.80;99.90
15111;DHT22;7656;51.954;7.998;2024-03-25T02:31:00;6.80;99.90
15111;DHT22;7656;51.954;7.998;2024-03-25T02:35:22;6.70;99.90
15111;DHT22;7656;51.954;7.998;2024-03-25T02:39:45;6.70;99.90
15111;DHT22;7656;51.954;7.998;2024-03-25T02:44:06;6.70;99.90
15111;DHT22;7656;51.954;7.998;2024-03-25T02:48:27;6.70;99.90
15111;DHT22;7656;51.954;7.998;2024-03-25T02:52:48;6.60;99.90
15111;DHT22;7656;51.954;7.998;2024-03-25T02:57:09;6.50;99.90
15111;DHT22;7656;51.954;7.998;2024-03-25T03:01:30;6.50;99.90
15111;DHT22;7656;51.954;7.998;2024-03-25T03:05:52;6.40;99.90
15111;DHT22;7656;51.954;7.998;2024-03-25T03:10:13;6.20;99.90
15111;DHT22;7656;51.954;7.998;2024-03-25T03:14:36;6.20;99.90
15111;DHT22;7656;51.954;7.998;2024-03-25T03:18:57;6.40;99.90
15111;DHT22;7656;51.954;7.998;2024-03-25T03:23:18;6.30;99.90
15111;DHT22;7656;51.954;7.998;2024-03-25T03:27:39;6.30;99.90
15111;DHT22;7656;51.954;7.998;2024-03-25T03:32:00;6.50;99.90
15111;DHT22;7656;51.954;7.998;2024-03-25T03:36:22;6.40;99.90
15111;DHT22;7656;51.954;7.998;2024-03-25T03:40:55;6.40;99.90
15111;DHT22;7656;51.954;7.998;2024-03-25T03:45:19;6.50;99.90
15111;DHT22;7656;51.954;7.998;2024-03-25T03:49:40;6.60;99.90
15111;DHT22;7656;51.954;7.998;2024-03-25T03:54:01;6.60;99.90
15111;DHT22;7656;51.954;7.998;2024-03-25T03:58:23;6.60;99.90
15111;DHT22;7656;51.954;7.998;2024-03-25T04:02:44;6.70;99.90
15111;DHT22;7656;51.954;7.998;2024-03-25T04:07:05;6.60;99.90
15111;DHT22;7656;51.954;7.998;2024-03-25T04:11:27;6.50;99.90
15111;DHT22;7656;51.954;7.998;2024-03-25T04:15:48;6.70;99.90
15111;DHT22;7656;51.954;7.998;2024-03-25T04:20:09;6.60;99.90
15111;DHT22;7656;51.954;7.998;2024-03-25T04:24:31;6.50;99.90
15111;DHT22;7656;51.954;7.998;2024-03-25T04:28:52;6.60;99.90
15111;DHT22;7656;51.954;7.998;2024-03-25T04:33:13;6.60;99.90
15111;DHT22;7656;51.954;7.998;2024-03-25T04:37:35;6.60;99.90
15111;DHT22;7656;51.954;7.998;2024-03-25T04:41:56;6.60;99.90
15111;DHT22;7656;51.954;7.998;2024-03-25T04:46:17;6.80;99.90
15111;DHT22;7656;51.954;7.998;2024-03-25T04:50:38;6.80;99.90
15111;DHT22;7656;51.954;7.998;2024-03-25T04:54:59;6.80;99.90
15111;DHT22;7656;51.954;7.998;2024-03-25T04:59:21;6.90;99.90
15111;DHT22;7656;51.954;7.998;2024-03-25T05:03:42;6.90;99.90
15111;DHT22;7656;51.954;7.998;2024-03-25T05:08:03;7.00;99.90
15111;DHT22;7656;51.954;7.998;2024-03-25T05:12:25;7.00;99.90
15111;DHT22;7656;51.954;7.998;2024-03-25T05:16:50;6.80;99.90
15111;DHT22;7656;51.954;7.998;2024-03-25T05:21:13;6.90;99.90
15111;DHT22;7656;51.954;7.998;2024-03-25T05:25:35;6.90;99.90
15111;DHT22;7656;51.954;7.998;2024-03-25T05:29:56;7.00;99.90
15111;DHT22;7656;51.954;7.998;2024-03-25T05:34:17;7.00;99.90
15111;DHT22;7656;51.954;7.998;2024-03-25T05:38:38;7.00;99.90
15111;DHT22;7656;51.954;7.998;2024-03-25T05:43:00;7.00;99.90
15111;DHT22;7656;51.954;7.998;2024-03-25T05:47:21;7.10;99.90
15111;DHT22;7656;51.954;7.998;2024-03-25T05:51:42;7.10;99.90
15111;DHT22;7656;51.954;7.998;2024-03-25T05:56:03;7.00;99.90
15111;DHT22;7656;51.954;7.998;2024-03-25T06:00:24;7.20;99.90
15111;DHT22;7656;51.954;7.998;2024-03-25T06:04:48;7.10;99.90
15111;DHT22;7656;51.954;7.998;2024-03-25T06:09:10;7.20;99.90
15111;DHT22;7656;51.954;7.998;2024-03-25T06:13:40;7.20;99.90
15111;DHT22;7656;51.954;7.998;2024-03-25T06:18:01;7.30;99.90
15111;DHT22;7656;51.954;7.998;2024-03-25T06:22:22;7.50;99.90
15111;DHT22;7656;51.954;7.998;2024-03-25T06:26:43;7.50;99.90
15111;DHT22;7656;51.954;7.998;2024-03-25T06:31:04;7.30;99.90
15111;DHT22;7656;51.954;7.998;2024-03-25T06:35:44;7.40;99.90
15111;DHT22;7656;51.954;7.998;2024-03-25T06:40:06;7.50;99.90
15111;DHT22;7656;51.954;7.998;2024-03-25T06:44:27;7.50;99.90
15111;DHT22;7656;51.954;7.998;2024-03-25T06:48:48;7.50;99.90
15111;DHT22;7656;51.954;7.998;2024-03-25T06:53:10;7.40;99.90
15111;DHT22;7656;51.954;7.998;2024-03-25T06:57:31;7.40;99.90
15111;DHT22;7656;51.954;7.998;2024-03-25T07:01:52;7.60;99.90
15111;DHT22;7656;51.954;7.998;2024-03-25T07:06:13;7.70;99.90
15111;DHT22;7656;51.954;7.998;2024-03-25T07:10:34;7.70;99.90
15111;DHT22;7656;51.954;7.998;2024-03-25T07:14:55;7.90;99.90
15111;DHT22;7656;51.954;7.998;2024-03-25T07:19:16;8.70;99.90
15111;DHT22;7656;51.954;7.998;2024-03-25T07:23:37;9.60;99.90
15111;DHT22;7656;51.954;7.998;2024-03-25T07:27:58;10.50;99.90
15111;DHT22;7656;51.954;7.998;2024-03-25T07:32:20;10.70;99.90
15111;DHT22;7656;51.954;7.998;2024-03-25T07:36:41;10.40;99.90
15111;DHT22;7656;51.954;7.998;2024-03-25T07:41:05;10.30;99.90
15111;DHT22;7656;51.954;7.998;2024-03-25T07:45:26;10.30;99.90
15111;DHT22;7656;51.954;7.998;2024-03-25T07:49:47;10.00;99.90
15111;DHT22;7656;51.954;7.998;2024-03-25T07:54:08;9.90;99.90
15111;DHT22;7656;51.954;7.998;2024-03-25T07:58:31;9.70;99.90
15111;DHT22;7656;51.954;7.998;2024-03-25T08:02:52;9.70;99.90
15111;DHT22;7656;51.954;7.998;2024-03-25T08:07:13;10.10;99.90
15111;DHT22;7656;51.954;7.998;2024-03-25T08:11:34;10.50;99.90
15111;DHT22;7656;51.954;7.998;2024-03-25T08:15:55;11.10;99.90
15111;DHT22;7656;51.954;7.998;2024-03-25T08:20:16;12.10;99.90
15111;DHT22;7656;51.954;7.998;2024-03-25T08:24:37;12.80;99.90
15111;DHT22;7656;51.954;7.998;2024-03-25T08:28:59;12.30;99.90
15111;DHT22;7656;51.954;7.998;2024-03-25T10:14:05;16.70;99.90
15111;DHT22;7656;51.954;7.998;2024-03-25T10:18:28;16.70;99.90
15111;DHT22;7656;51.954;7.998;2024-03-25T10:22:49;15.70;99.90
15111;DHT22;7656;51.954;7.998;2024-03-25T10:27:17;14.20;99.90
15111;DHT22;7656;51.954;7.998;2024-03-25T10:31:40;14.00;99.90
15111;DHT22;7656;51.954;7.998;2024-03-25T10:36:03;14.20;99.90
15111;DHT22;7656;51.954;7.998;2024-03-25T10:40:29;13.70;99.90
15111;DHT22;7656;51.954;7.998;2024-03-25T10:44:52;14.20;99.90
15111;DHT22;7656;51.954;7.998;2024-03-25T10:49:23;14.20;99.90
15111;DHT22;7656;51.954;7.998;2024-03-25T10:53:59;14.40;99.90
15111;DHT22;7656;51.954;7.998;2024-03-25T10:58:22;14.50;99.90
15111;DHT22;7656;51.954;7.998;2024-03-25T11:02:44;13.40;99.90
15111;DHT22;7656;51.954;7.998;2024-03-25T11:07:13;14.00;99.90
15111;DHT22;7656;51.954;7.998;2024-03-25T11:20:20;18.20;99.90
15111;DHT22;7656;51.954;7.998;2024-03-25T11:24:44;18.10;99.90
15111;DHT22;7656;51.954;7.998;2024-03-25T11:29:05;16.60;99.90
15111;DHT22;7656;51.954;7.998;2024-03-25T11:33:26;16.10;99.90
15111;DHT22;7656;51.954;7.998;2024-03-25T11:37:48;16.30;99.90
15111;DHT22;7656;51.954;7.998;2024-03-25T11:42:12;15.80;99.90
15111;DHT22;7656;51.954;7.998;2024-03-25T11:46:36;15.60;99.90
15111;DHT22;7656;51.954;7.998;2024-03-25T11:50:58;16.30;99.90
15111;DHT22;7656;51.954;7.998;2024-03-25T11:55:20;19.50;99.90
15111;DHT22;7656;51.954;7.998;2024-03-25T11:59:43;21.60;96.80
15111;DHT22;7656;51.954;7.998;2024-03-25T12:04:11;20.60;96.70
15111;DHT22;7656;51.954;7.998;2024-03-25T12:08:39;19.70;96.10
15111;DHT22;7656;51.954;7.998;2024-03-25T12:13:20;18.10;99.40
15111;DHT22;7656;51.954;7.998;2024-03-25T12:17:41;17.60;99.90
15111;DHT22;7656;51.954;7.998;2024-03-25T12:22:04;18.60;98.70
15111;DHT22;7656;51.954;7.998;2024-03-25T12:26:25;18.80;97.90
15111;DHT22;7656;51.954;7.998;2024-03-25T12:30:51;18.60;98.40
15111;DHT22;7656;51.954;7.998;2024-03-25T12:35:15;18.30;98.20
15111;DHT22;7656;51.954;7.998;2024-03-25T12:39:47;19.60;97.60
15111;DHT22;7656;51.954;7.998;2024-03-25T12:44:09;20.40;94.70
15111;DHT22;7656;51.954;7.998;2024-03-25T12:48:30;19.00;95.90
15111;DHT22;7656;51.954;7.998;2024-03-25T12:52:51;17.50;95.60
15111;DHT22;7656;51.954;7.998;2024-03-25T12:57:12;15.70;99.50
15111;DHT22;7656;51.954;7.998;2024-03-25T13:01:33;16.60;97.70
15111;DHT22;7656;51.954;7.998;2024-03-25T13:05:54;18.90;96.60
15111;DHT22;7656;51.954;7.998;2024-03-25T13:10:18;20.50;95.40
15111;DHT22;7656;51.954;7.998;2024-03-25T13:14:40;20.40;93.40
15111;DHT22;7656;51.954;7.998;2024-03-25T13:19:01;18.60;93.60
15111;DHT22;7656;51.954;7.998;2024-03-25T13:23:22;17.50;96.50
15111;DHT22;7656;51.954;7.998;2024-03-25T13:27:43;17.70;97.00
15111;DHT22;7656;51.954;7.998;2024-03-25T13:32:04;15.30;95.00
15111;DHT22;7656;51.954;7.998;2024-03-25T13:49:30;18.60;93.00
15111;DHT22;7656;51.954;7.998;2024-03-25T13:53:51;17.20;95.40
15111;DHT22;7656;51.954;7.998;2024-03-25T13:58:13;17.20;94.70
15111;DHT22;7656;51.954;7.998;2024-03-25T14:02:34;16.40;93.50
15111;DHT22;7656;51.954;7.998;2024-03-25T14:06:56;14.80;96.40
15111;DHT22;7656;51.954;7.998;2024-03-25T14:11:17;14.20;98.00
15111;DHT22;7656;51.954;7.998;2024-03-25T14:15:39;14.70;97.20
15111;DHT22;7656;51.954;7.998;2024-03-25T14:20:00;15.10;96.60
15111;DHT22;7656;51.954;7.998;2024-03-25T14:24:21;15.00;96.70
15111;DHT22;7656;51.954;7.998;2024-03-25T14:28:42;14.40;97.20
15111;DHT22;7656;51.954;7.998;2024-03-25T14:33:03;14.50;97.80
15111;DHT22;7656;51.954;7.998;2024-03-25T14:37:25;14.10;97.30
15111;DHT22;7656;51.954;7.998;2024-03-25T14:41:46;13.40;99.80
15111;DHT22;7656;51.954;7.998;2024-03-25T14:46:08;12.40;99.90
15111;DHT22;7656;51.954;7.998;2024-03-25T14:50:29;12.90;99.90
15111;DHT22;7656;51.954;7.998;2024-03-25T14:54:50;12.50;99.90
15111;DHT22;7656;51.954;7.998;2024-03-25T14:59:11;13.00;99.90
15111;DHT22;7656;51.954;7.998;2024-03-25T15:03:32;12.40;99.90
15111;DHT22;7656;51.954;7.998;2024-03-25T15:07:53;12.20;99.90
15111;DHT22;7656;51.954;7.998;2024-03-25T15:12:14;12.90;99.90
15111;DHT22;7656;51.954;7.998;2024-03-25T15:16:35;13.80;99.90
15111;DHT22;7656;51.954;7.998;2024-03-25T15:21:04;14.30;99.90
15111;DHT22;7656;51.954;7.998;2024-03-25T15:25:25;13.10;99.90
15111;DHT22;7656;51.954;7.998;2024-03-25T15:29:47;12.00;99.90
15111;DHT22;7656;51.954;7.998;2024-03-25T15:34:08;11.90;99.90
15111;DHT22;7656;51.954;7.998;2024-03-25T15:38:30;11.50;99.90
15111;DHT22;7656;51.954;7.998;2024-03-25T15:42:51;11.70;99.90
15111;DHT22;7656;51.954;7.998;2024-03-25T15:47:12;11.80;99.90
15111;DHT22;7656;51.954;7.998;2024-03-25T15:51:33;11.50;99.90
15111;DHT22;7656;51.954;7.998;2024-03-25T15:55:54;11.70;99.90
15111;DHT22;7656;51.954;7.998;2024-03-25T16:00:15;12.00;99.90
15111;DHT22;7656;51.954;7.998;2024-03-25T16:04:36;12.20;99.90
15111;DHT22;7656;51.954;7.998;2024-03-25T16:08:57;12.50;99.90
15111;DHT22;7656;51.954;7.998;2024-03-25T16:13:19;12.80;99.90
15111;DHT22;7656;51.954;7.998;2024-03-25T16:17:43;12.70;99.90
15111;DHT22;7656;51.954;7.998;2024-03-25T16:22:05;12.30;99.90
15111;DHT22;7656;51.954;7.998;2024-03-25T16:26:27;11.70;99.90
15111;DHT22;7656;51.954;7.998;2024-03-25T16:30:48;11.60;99.90
15111;DHT22;7656;51.954;7.998;2024-03-25T16:35:09;11.20;99.90
15111;DHT22;7656;51.954;7.998;2024-03-25T16:39:30;11.10;99.90
15111;DHT22;7656;51.954;7.998;2024-03-25T16:43:51;11.10;99.90
15111;DHT22;7656;51.954;7.998;2024-03-25T16:48:12;10.80;99.90
15111;DHT22;7656;51.954;7.998;2024-03-25T16:52:35;11.00;99.90
15111;DHT22;7656;51.954;7.998;2024-03-25T16:56:56;11.00;99.90
15111;DHT22;7656;51.954;7.998;2024-03-25T17:01:17;11.10;99.90
15111;DHT22;7656;51.954;7.998;2024-03-25T17:05:38;10.80;99.90
15111;DHT22;7656;51.954;7.998;2024-03-25T17:10:00;10.60;99.90
15111;DHT22;7656;51.954;7.998;2024-03-25T17:14:21;10.30;99.90
15111;DHT22;7656;51.954;7.998;2024-03-25T17:18:42;10.10;99.90
15111;DHT22;7656;51.954;7.998;2024-03-25T17:23:03;10.10;99.90
15111;DHT22;7656;51.954;7.998;2024-03-25T17:27:24;10.10;99.90
15111;DHT22;7656;51.954;7.998;2024-03-25T17:31:48;9.80;99.90
15111;DHT22;7656;51.954;7.998;2024-03-25T17:36:09;9.70;99.90
15111;DHT22;7656;51.954;7.998;2024-03-25T17:40:31;9.60;99.90
15111;DHT22;7656;51.954;7.998;2024-03-25T17:44:52;9.30;99.90
15111;DHT22;7656;51.954;7.998;2024-03-25T17:49:14;9.10;99.90
15111;DHT22;7656;51.954;7.998;2024-03-25T17:53:35;9.10;99.90
15111;DHT22;7656;51.954;7.998;2024-03-25T17:57:56;9.20;99.90
15111;DHT22;7656;51.954;7.998;2024-03-25T18:02:17;9.30;99.90
15111;DHT22;7656;51.954;7.998;2024-03-25T18:06:38;9.00;99.90
15111;DHT22;7656;51.954;7.998;2024-03-25T18:10:59;8.80;99.90
15111;DHT22;7656;51.954;7.998;2024-03-25T18:15:20;8.70;99.90
15111;DHT22;7656;51.954;7.998;2024-03-25T18:19:41;8.70;99.90
15111;DHT22;7656;51.954;7.998;2024-03-25T18:24:03;8.40;99.90
15111;DHT22;7656;51.954;7.998;2024-03-25T18:28:24;8.10;99.90
15111;DHT22;7656;51.954;7.998;2024-03-25T18:32:45;8.10;99.90
15111;DHT22;7656;51.954;7.998;2024-03-25T18:37:06;8.20;99.90
15111;DHT22;7656;51.954;7.998;2024-03-25T18:41:28;8.20;99.90
15111;DHT22;7656;51.954;7.998;2024-03-25T18:45:49;8.10;99.90
15111;DHT22;7656;51.954;7.998;2024-03-25T18:50:10;7.90;99.90
15111;DHT22;7656;51.954;7.998;2024-03-25T18:54:31;7.70;99.90
15111;DHT22;7656;51.954;7.998;2024-03-25T18:58:52;7.80;99.90
15111;DHT22;7656;51.954;7.998;2024-03-25T19:03:13;7.80;99.90
15111;DHT22;7656;51.954;7.998;2024-03-25T19:07:35;7.50;99.90
15111;DHT22;7656;51.954;7.998;2024-03-25T19:11:56;7.30;99.90
15111;DHT22;7656;51.954;7.998;2024-03-25T19:16:17;7.00;99.90
15111;DHT22;7656;51.954;7.998;2024-03-25T19:20:39;6.90;99.90
15111;DHT22;7656;51.954;7.998;2024-03-25T19:25:00;6.90;99.90
15111;DHT22;7656;51.954;7.998;2024-03-25T19:29:22;6.80;99.90
15111;DHT22;7656;51.954;7.998;2024-03-25T19:33:43;6.90;99.90
15111;DHT22;7656;51.954;7.998;2024-03-25T19:38:04;6.70;99.90
15111;DHT22;7656;51.954;7.998;2024-03-25T19:42:25;6.50;99.90
15111;DHT22;7656;51.954;7.998;2024-03-25T19:46:46;6.30;99.90
15111;DHT22;7656;51.954;7.998;2024-03-25T19:51:07;6.30;99.90
15111;DHT22;7656;51.954;7.998;2024-03-25T19:55:28;6.20;99.90
15111;DHT22;7656;51.954;7.998;2024-03-25T19:59:52;6.10;99.90
15111;DHT22;7656;51.954;7.998;2024-03-25T20:04:16;6.00;99.90
15111;DHT22;7656;51.954;7.998;2024-03-25T20:08:37;6.00;99.90
15111;DHT22;7656;51.954;7.998;2024-03-25T20:12:59;6.10;99.90
15111;DHT22;7656;51.954;7.998;2024-03-25T20:17:20;6.10;99.90
15111;DHT22;7656;51.954;7.998;2024-03-25T20:21:42;6.10;99.90
15111;DHT22;7656;51.954;7.998;2024-03-25T20:26:07;6.10;99.90
15111;DHT22;7656;51.954;7.998;2024-03-25T20:30:43;6.10;99.90
15111;DHT22;7656;51.954;7.998;2024-03-25T20:35:04;6.10;99.90
15111;DHT22;7656;51.954;7.998;2024-03-25T20:39:25;6.10;99.90
15111;DHT22;7656;51.954;7.998;2024-03-25T20:43:46;6.20;99.90
15111;DHT22;7656;51.954;7.998;2024-03-25T20:48:11;6.10;99.90
15111;DHT22;7656;51.954;7.998;2024-03-25T20:52:43;6.10;99.90
15111;DHT22;7656;51.954;7.998;2024-03-25T20:57:05;6.10;99.90
15111;DHT22;7656;51.954;7.998;2024-03-25T21:01:28;6.10;99.90
15111;DHT22;7656;51.954;7.998;2024-03-25T21:05:57;6.10;99.90
15111;DHT22;7656;51.954;7.998;2024-03-25T21:10:22;6.10;99.90
15111;DHT22;7656;51.954;7.998;2024-03-25T21:14:43;6.10;99.90
15111;DHT22;7656;51.954;7.998;2024-03-25T21:19:04;5.90;99.90
15111;DHT22;7656;51.954;7.998;2024-03-25T21:23:25;6.00;99.90
15111;DHT22;7656;51.954;7.998;2024-03-25T21:27:47;5.90;99.90
15111;DHT22;7656;51.954;7.998;2024-03-25T21:32:08;5.90;99.90
15111;DHT22;7656;51.954;7.998;2024-03-25T21:36:29;5.90;99.90
15111;DHT22;7656;51.954;7.998;2024-03-25T21:40:50;5.90;99.90
15111;DHT22;7656;51.954;7.998;2024-03-25T21:45:11;5.90;99.90
15111;DHT22;7656;51.954;7.998;2024-03-25T21:49:32;5.80;99.90
15111;DHT22;7656;51.954;7.998;2024-03-25T21:53:53;5.70;99.90
15111;DHT22;7656;51.954;7.998;2024-03-25T21:58:14;5.70;99.90
15111;DHT22;7656;51.954;7.998;2024-03-25T22:02:37;5.70;99.90
15111;DHT22;7656;51.954;7.998;2024-03-25T22:06:58;5.80;99.90
15111;DHT22;7656;51.954;7.998;2024-03-25T22:11:19;5.60;99.90
15111;DHT22;7656;51.954;7.998;2024-03-25T22:15:40;5.60;99.90
15111;DHT22;7656;51.954;7.998;2024-03-25T22:20:02;5.60;99.90
15111;DHT22;7656;51.954;7.998;2024-03-25T22:24:23;5.60;99.90
15111;DHT22;7656;51.954;7.998;2024-03-25T22:28:44;5.40;99.90
15111;DHT22;7656;51.954;7.998;2024-03-25T22:33:05;5.40;99.90
15111;DHT22;7656;51.954;7.998;2024-03-25T22:37:27;5.40;99.90
15111;DHT22;7656;51.954;7.998;2024-03-25T22:41:48;5.40;99.90
15111;DHT22;7656;51.954;7.998;2024-03-25T22:46:09;5.30;99.90
15111;DHT22;7656;51.954;7.998;2024-03-25T22:50:30;5.10;99.90
15111;DHT22;7656;51.954;7.998;2024-03-25T22:54:51;5.10;99.90
15111;DHT22;7656;51.954;7.998;2024-03-25T22:59:12;5.10;99.90
15111;DHT22;7656;51.954;7.998;2024-03-25T23:03:34;5.00;99.90
15111;DHT22;7656;51.954;7.998;2024-03-25T23:07:55;4.90;99.90
15111;DHT22;7656;51.954;7.998;2024-03-25T23:12:16;4.90;99.90
15111;DHT22;7656;51.954;7.998;2024-03-25T23:16:37;5.00;99.90
15111;DHT22;7656;51.954;7.998;2024-03-25T23:21:02;5.00;99.90
15111;DHT22;7656;51.954;7.998;2024-03-25T23:25:23;5.00;99.90
15111;DHT22;7656;51.954;7.998;2024-03-25T23:29:46;4.90;99.90
15111;DHT22;7656;51.954;7.998;2024-03-25T23:34:07;4.90;99.90
15111;DHT22;7656;51.954;7.998;2024-03-25T23:38:28;4.80;99.90
15111;DHT22;7656;51.954;7.998;2024-03-25T23:42:49;4.80;99.90
15111;DHT22;7656;51.954;7.998;2024-03-25T23:47:10;4.80;99.90
15111;DHT22;7656;51.954;7.998;2024-03-25T23:51:31;4.90;99.90
15111;DHT22;7656;51.954;7.998;2024-03-25T23:55:52;4.80;99.90
